Hauptseite
METAR-TAF:

METAR-TAF

Flughäfen :

Berlin-Schönefeld, Deutschland

Flughafen Berlin-Schönefeld

Breite: 52-23N, Länge: 013-31E, Höhe: 47 m

Beobachtung

Neuester Wetterbericht von vor 35 Minuten, um 08:20 UTC
Wind 8 kt aus Süd
Temperatur 10°C
Luftfeuchtigkeit 62%
Luftdruck 1008 hPa
Sichtweite 10 km oder mehr
Leicht bewölkt in der Höhe von 4000 ft
Aufgelockert bewölkt in der Höhe von 30000 ft

METAR: EDDB 270820Z 18008KT 9999 FEW040 SCT300 10/03 Q1008 NOSIG

Zeit: 09:55 (08:55 UTC)

Prognose

Neuester Wetterbericht von vor 3 Stunden und 55 Minuten, um 05:00 UTC
Gültige Prognose vom 27 um 06 UTC bis 28 um 06 UTC
Wind 10 kt aus Süd
Sichtweite 10 km oder mehr
keine Wolken unter 1500 m und keine Kumulonimbus oder Gewitterwolken

TAF: EDDB 270500Z 2706/2806 19010KT CAVOK

Wetterbeobachtungen und Prognosen von mehr als 4000 Flughäfen (METAR und TAF Bericht).

Die verfügbaren Stationen werden durch gelbe und rote Markierungen auf der Karte dargestellt.

Führen Sie die Maus auf sie, um den Namen der Station zu sehen.

Darauf klicken, um die Beobachtung von Wetterbeobachtungen und Prognosen zu sehen.

Um die Karte zu ändern : klicken Sie auf den grünen Tasten mit einem schwarzen Kreuz Zum Vergrößern, auf den grünen Button mit einem Gedankenstrich zu verkleinern, oder auf die grünen Pfeile für benachbarte Karten.


METAR-TAF: